Time;durP1;ratioP1;P1;durP2;ratioP2;P2;SDS_P1;SDS_P2;PMS_P1;PMS_P2;Temp;Humidity;BMP_temperature;BMP_pressure;BME280_temperature;BME280_humidity;BME280_pressure;Samples;Min_cycle;Max_cycle;Signal;HPM_P1;HPM_P2
2020/12/09 00:00:08;;;;;;;45.28;23.15;;;4.40;99.90;;;;;;5048554;28;20213;-74
2020/12/09 00:02:35;;;;;;;41.55;24.10;;;4.40;99.90;;;;;;5047910;28;20206;-74
2020/12/09 00:05:04;;;;;;;37.95;21.70;;;4.50;99.90;;;;;;5029343;28;20545;-74
2020/12/09 00:07:34;;;;;;;43.28;23.73;;;4.30;99.90;;;;;;5034754;28;20206;-74
2020/12/09 00:10:00;;;;;;;43.13;24.33;;;4.40;99.90;;;;;;5048430;28;20565;-74
2020/12/09 00:12:30;;;;;;;41.03;23.42;;;4.60;99.90;;;;;;5048090;28;20210;-74
2020/12/09 00:14:57;;;;;;;42.08;22.90;;;4.50;99.90;;;;;;5049005;28;20245;-74
2020/12/09 00:17:24;;;;;;;41.35;22.38;;;4.40;99.90;;;;;;5045163;28;20227;-74
2020/12/09 00:19:51;;;;;;;39.38;22.30;;;4.60;99.90;;;;;;5029041;28;20650;-74
2020/12/09 00:22:19;;;;;;;43.08;23.48;;;4.60;99.90;;;;;;5048553;28;20206;-74
2020/12/09 00:24:45;;;;;;;42.03;22.95;;;4.30;99.90;;;;;;5048713;28;20736;-74
2020/12/09 00:27:12;;;;;;;43.42;25.00;;;4.40;99.90;;;;;;5033294;28;20289;-74
2020/12/09 00:29:38;;;;;;;43.75;23.63;;;4.50;99.90;;;;;;5048013;28;20256;-74
2020/12/09 00:32:05;;;;;;;42.17;23.05;;;4.50;99.90;;;;;;5049003;28;20237;-74
2020/12/09 00:34:31;;;;;;;47.00;24.15;;;4.80;99.90;;;;;;5036137;28;20227;-74
2020/12/09 00:36:59;;;;;;;44.80;24.05;;;4.80;99.90;;;;;;5032668;28;20207;-74
2020/12/09 00:39:25;;;;;;;41.80;23.98;;;4.90;99.90;;;;;;5044026;28;20261;-73
2020/12/09 00:41:52;;;;;;;41.35;22.73;;;4.70;99.90;;;;;;5051966;28;20207;-73
2020/12/09 00:44:19;;;;;;;39.85;23.30;;;5.00;99.90;;;;;;5051359;28;20818;-73
2020/12/09 00:46:45;;;;;;;40.33;22.23;;;5.00;99.90;;;;;;5053147;28;20222;-73
2020/12/09 00:49:12;;;;;;;46.53;24.88;;;4.80;99.90;;;;;;5043378;28;20199;-73
2020/12/09 00:51:38;;;;;;;42.95;23.90;;;4.60;99.90;;;;;;5032665;28;20277;-74
2020/12/09 00:54:05;;;;;;;44.10;23.83;;;4.60;99.90;;;;;;5039472;28;20219;-74
2020/12/09 00:56:32;;;;;;;47.45;24.25;;;4.80;99.90;;;;;;5051952;28;20260;-74
2020/12/09 00:58:59;;;;;;;47.67;23.75;;;4.70;99.90;;;;;;5045881;28;20266;-74
2020/12/09 01:01:25;;;;;;;42.80;24.40;;;4.70;99.90;;;;;;5035888;28;21212;-74
2020/12/09 01:03:52;;;;;;;40.10;22.20;;;4.70;99.90;;;;;;5046452;28;20223;-74
2020/12/09 01:06:18;;;;;;;40.70;23.08;;;4.80;99.90;;;;;;5046479;28;20611;-74
2020/12/09 01:08:45;;;;;;;40.63;24.17;;;4.90;99.90;;;;;;5035740;28;20203;-74
2020/12/09 01:11:12;;;;;;;41.70;23.73;;;4.60;99.90;;;;;;5041827;28;20214;-75
2020/12/09 01:13:44;;;;;;;42.92;22.35;;;4.50;99.90;;;;;;5033331;28;20230;-74
2020/12/09 01:16:14;;;;;;;44.63;23.73;;;4.90;99.90;;;;;;5052783;28;20195;-75
2020/12/09 01:18:40;;;;;;;41.72;23.98;;;4.80;99.90;;;;;;5050861;28;20230;-74
2020/12/09 01:21:07;;;;;;;42.92;23.90;;;4.90;99.90;;;;;;5053017;28;20288;-74
2020/12/09 01:23:33;;;;;;;33.17;17.30;;;4.90;99.90;;;;;;5051854;28;20229;-74
2020/12/09 01:26:00;;;;;;;36.42;20.98;;;4.90;99.90;;;;;;5050271;28;20252;-74
2020/12/09 01:28:27;;;;;;;34.95;18.77;;;4.80;99.90;;;;;;5051364;28;20669;-74
2020/12/09 01:30:55;;;;;;;44.42;22.42;;;4.70;99.90;;;;;;5049487;28;20206;-74
2020/12/09 01:33:21;;;;;;;39.22;21.83;;;4.70;99.90;;;;;;5051766;28;20253;-74
2020/12/09 01:35:48;;;;;;;45.53;22.40;;;4.70;99.90;;;;;;5048258;28;20199;-73
2020/12/09 01:38:14;;;;;;;40.65;20.75;;;4.80;99.90;;;;;;5034487;28;20310;-75
2020/12/09 01:40:41;;;;;;;41.30;22.63;;;4.70;99.90;;;;;;5051456;28;20591;-73
2020/12/09 01:43:07;;;;;;;44.65;21.42;;;4.80;99.90;;;;;;5050435;28;20634;-75
2020/12/09 01:45:35;;;;;;;40.15;23.35;;;4.90;99.90;;;;;;5050220;28;20233;-73
2020/12/09 01:48:01;;;;;;;43.13;24.95;;;4.70;99.90;;;;;;5049710;28;20206;-73
2020/12/09 01:50:28;;;;;;;47.13;22.92;;;4.50;99.90;;;;;;5051378;28;20202;-73
2020/12/09 01:52:55;;;;;;;38.88;19.10;;;4.60;99.90;;;;;;5051074;28;20202;-73
2020/12/09 01:55:22;;;;;;;38.95;23.15;;;4.80;99.90;;;;;;5031896;28;20207;-73
2020/12/09 01:57:48;;;;;;;47.25;24.75;;;4.90;99.90;;;;;;5044612;28;20237;-73
2020/12/09 02:00:15;;;;;;;46.08;22.98;;;4.90;99.90;;;;;;5050392;28;20214;-76
2020/12/09 02:02:42;;;;;;;45.78;25.55;;;4.90;99.90;;;;;;5050915;28;20210;-75
2020/12/09 02:05:09;;;;;;;39.33;21.77;;;4.60;99.90;;;;;;5034921;28;20219;-75
2020/12/09 02:07:36;;;;;;;40.95;24.65;;;4.90;99.90;;;;;;5031236;28;20218;-75
2020/12/09 02:10:05;;;;;;;48.03;25.05;;;5.00;99.90;;;;;;5044014;28;20356;-75
2020/12/09 02:12:33;;;;;;;42.22;21.48;;;4.90;99.90;;;;;;5050740;28;20213;-75
2020/12/09 02:15:00;;;;;;;47.42;25.45;;;4.50;99.90;;;;;;5050320;28;20287;-75
2020/12/09 02:17:26;;;;;;;45.42;24.35;;;5.00;99.90;;;;;;5050908;28;20210;-75
2020/12/09 02:19:54;;;;;;;39.58;21.55;;;4.60;99.90;;;;;;5039102;28;20203;-75
2020/12/09 02:22:21;;;;;;;45.38;24.10;;;5.00;99.90;;;;;;5030868;28;20203;-75
2020/12/09 02:24:48;;;;;;;43.80;22.52;;;4.80;99.90;;;;;;5041487;28;20222;-75
2020/12/09 02:27:15;;;;;;;41.83;23.73;;;5.00;99.90;;;;;;5050967;28;20207;-75
2020/12/09 02:29:41;;;;;;;48.72;24.58;;;4.70;99.90;;;;;;5049960;28;20669;-75
2020/12/09 02:32:08;;;;;;;50.40;25.83;;;4.90;99.90;;;;;;5050859;28;20226;-75
2020/12/09 02:34:34;;;;;;;42.63;22.65;;;4.70;99.90;;;;;;5041956;28;20226;-75
2020/12/09 02:37:01;;;;;;;43.60;23.00;;;4.90;99.90;;;;;;5030821;28;20207;-75
2020/12/09 02:39:33;;;;;;;44.55;25.00;;;5.10;99.90;;;;;;5037092;28;20226;-75
2020/12/09 02:42:00;;;;;;;43.60;22.67;;;5.10;99.90;;;;;;5039637;28;20215;-75
2020/12/09 02:44:27;;;;;;;45.88;23.40;;;5.00;99.90;;;;;;5036388;28;20613;-75
2020/12/09 02:46:53;;;;;;;42.33;22.08;;;5.10;99.90;;;;;;5050057;28;20214;-75
2020/12/09 02:49:22;;;;;;;39.38;22.60;;;4.90;99.90;;;;;;5049264;28;20293;-75
2020/12/09 02:51:49;;;;;;;44.83;24.30;;;5.00;99.90;;;;;;5050174;28;20213;-75
2020/12/09 02:54:16;;;;;;;44.83;23.30;;;4.80;99.90;;;;;;5046536;28;20219;-75
2020/12/09 02:56:43;;;;;;;40.30;20.98;;;4.90;99.90;;;;;;5029905;28;20247;-75
2020/12/09 02:59:10;;;;;;;46.08;22.13;;;5.10;99.90;;;;;;5031712;28;20234;-75
2020/12/09 03:01:36;;;;;;;51.65;24.90;;;4.90;99.90;;;;;;5045100;28;20213;-75
2020/12/09 03:04:03;;;;;;;41.08;23.17;;;4.80;99.90;;;;;;5049322;28;20262;-76
2020/12/09 03:06:30;;;;;;;40.97;21.65;;;4.70;99.90;;;;;;5050288;28;20307;-75
2020/12/09 03:08:57;;;;;;;42.33;23.67;;;4.60;99.90;;;;;;5049750;28;20221;-75
2020/12/09 03:11:23;;;;;;;41.97;24.75;;;4.60;99.90;;;;;;5045249;28;20532;-75
2020/12/09 03:13:51;;;;;;;43.67;24.17;;;4.60;99.90;;;;;;5038328;28;20231;-76
2020/12/09 03:16:17;;;;;;;44.38;24.38;;;4.90;99.90;;;;;;5044065;28;20206;-76
2020/12/09 03:18:44;;;;;;;45.63;24.48;;;4.90;99.90;;;;;;5048878;28;20550;-76
2020/12/09 03:21:10;;;;;;;47.00;24.98;;;4.70;99.90;;;;;;5049780;28;20673;-76
2020/12/09 03:23:37;;;;;;;39.65;20.85;;;4.90;99.90;;;;;;5041053;28;20223;-75
2020/12/09 03:26:05;;;;;;;50.22;25.02;;;5.00;99.90;;;;;;5029485;28;20211;-75
2020/12/09 03:28:33;;;;;;;46.33;25.85;;;4.80;99.90;;;;;;5036425;28;20252;-75
2020/12/09 03:31:00;;;;;;;39.38;22.33;;;4.60;99.90;;;;;;5049768;28;20210;-75
2020/12/09 03:33:27;;;;;;;35.40;20.55;;;4.80;99.90;;;;;;5048981;28;20325;-75
2020/12/09 03:35:53;;;;;;;47.40;21.98;;;5.00;99.90;;;;;;5049960;28;20210;-75
2020/12/09 03:38:20;;;;;;;43.15;22.67;;;5.00;99.90;;;;;;5044579;28;20234;-75
2020/12/09 03:40:46;;;;;;;39.47;23.45;;;4.80;99.90;;;;;;5029587;28;20685;-75
2020/12/09 03:43:13;;;;;;;48.28;26.40;;;4.60;99.90;;;;;;5039850;28;20567;-75
2020/12/09 03:45:39;;;;;;;46.55;25.65;;;4.60;99.90;;;;;;5048752;28;20218;-75
2020/12/09 03:48:06;;;;;;;45.30;26.35;;;4.60;99.90;;;;;;5048980;28;20207;-75
2020/12/09 03:50:33;;;;;;;48.45;27.00;;;4.70;99.90;;;;;;5049564;28;20213;-75
2020/12/09 03:53:00;;;;;;;44.72;24.73;;;4.60;99.90;;;;;;5049114;28;20218;-75
2020/12/09 03:55:26;;;;;;;47.97;24.83;;;4.70;99.90;;;;;;5029631;28;20215;-76
2020/12/09 03:57:53;;;;;;;46.85;23.85;;;4.80;99.90;;;;;;5047823;28;20217;-76
2020/12/09 04:00:20;;;;;;;43.72;23.50;;;5.00;99.90;;;;;;5048667;28;20198;-75
2020/12/09 04:02:46;;;;;;;45.58;24.77;;;5.20;99.90;;;;;;5048929;28;20218;-76
2020/12/09 04:05:14;;;;;;;47.45;26.10;;;5.00;99.90;;;;;;5031208;28;20312;-76
2020/12/09 04:07:40;;;;;;;49.08;25.38;;;4.90;99.90;;;;;;5029483;28;20207;-75
2020/12/09 04:10:07;;;;;;;46.92;25.15;;;4.90;99.90;;;;;;5044284;28;20210;-75
2020/12/09 04:12:34;;;;;;;50.15;26.15;;;4.70;99.90;;;;;;5053040;28;20309;-76
2020/12/09 04:15:02;;;;;;;44.03;26.15;;;4.90;99.90;;;;;;5052475;28;20230;-75
2020/12/09 04:17:28;;;;;;;49.58;26.33;;;4.80;99.90;;;;;;5053355;28;20214;-75
2020/12/09 04:19:55;;;;;;;48.28;28.25;;;4.70;99.90;;;;;;5050957;28;20810;-75
2020/12/09 04:22:23;;;;;;;51.65;26.33;;;4.90;99.90;;;;;;5051878;28;20247;-75
2020/12/09 04:24:49;;;;;;;46.78;25.08;;;4.80;99.90;;;;;;5052398;28;20547;-75
2020/12/09 04:27:16;;;;;;;45.45;25.05;;;4.80;99.90;;;;;;5052626;28;20207;-75
2020/12/09 04:29:43;;;;;;;49.13;25.80;;;4.80;99.90;;;;;;5041497;28;20202;-75
2020/12/09 04:32:09;;;;;;;48.72;26.00;;;4.90;99.90;;;;;;5089182;22;20228;-75
2020/12/09 04:34:37;;;;;;;40.90;23.95;;;5.00;99.90;;;;;;5124229;27;20200;-75
2020/12/09 04:37:04;;;;;;;45.65;25.63;;;5.10;99.90;;;;;;5114494;28;20211;-74
2020/12/09 04:39:31;;;;;;;45.00;24.50;;;5.00;99.90;;;;;;5114387;28;20220;-75
2020/12/09 04:41:58;;;;;;;48.35;25.38;;;5.20;99.90;;;;;;5115473;28;20232;-74
2020/12/09 04:44:24;;;;;;;47.53;28.30;;;5.00;99.90;;;;;;5119696;28;20200;-74
2020/12/09 04:46:52;;;;;;;45.58;25.67;;;4.70;99.90;;;;;;5117681;28;20236;-74
2020/12/09 04:49:21;;;;;;;43.70;25.38;;;4.80;99.90;;;;;;5103311;28;20272;-74
2020/12/09 04:52:15;;;;;;;43.75;25.05;;;4.80;99.90;;;;;;5116014;28;20224;-75
2020/12/09 04:54:43;;;;;;;39.30;23.23;;;5.00;99.90;;;;;;5126860;28;20196;-75
2020/12/09 04:57:12;;;;;;;42.70;23.60;;;5.10;99.90;;;;;;5102427;28;20217;-74
2020/12/09 04:59:41;;;;;;;43.67;26.58;;;5.00;99.90;;;;;;5105632;28;20274;-75
2020/12/09 05:02:09;;;;;;;44.35;25.65;;;4.90;99.90;;;;;;5108784;28;20224;-74
2020/12/09 05:04:37;;;;;;;49.15;24.83;;;4.80;99.90;;;;;;5100526;28;20201;-75
2020/12/09 05:07:08;;;;;;;48.05;25.20;;;4.70;99.90;;;;;;5107561;28;20197;-75
2020/12/09 05:09:43;;;;;;;49.65;25.95;;;4.80;99.90;;;;;;5114348;28;20283;-75
2020/12/09 05:12:13;;;;;;;44.40;25.33;;;4.60;99.90;;;;;;5093902;28;20299;-75
2020/12/09 05:14:48;;;;;;;49.00;25.60;;;4.80;99.90;;;;;;5094675;28;20575;-75
2020/12/09 05:17:18;;;;;;;42.90;24.75;;;4.70;99.90;;;;;;5095004;28;20766;-75
2020/12/09 05:19:45;;;;;;;46.10;25.23;;;5.10;99.90;;;;;;5093057;28;20243;-76
2020/12/09 05:22:16;;;;;;;44.72;25.48;;;4.90;99.90;;;;;;5093499;28;20274;-75
2020/12/09 05:24:43;;;;;;;47.45;26.92;;;4.80;99.90;;;;;;5094158;28;20220;-74
2020/12/09 05:27:11;;;;;;;44.42;24.48;;;4.80;99.90;;;;;;5101781;28;20209;-75
2020/12/09 05:29:45;;;;;;;52.42;28.10;;;4.70;99.90;;;;;;5093318;28;20197;-75
2020/12/09 05:32:12;;;;;;;45.85;25.20;;;4.60;99.90;;;;;;5103824;28;20224;-75
2020/12/09 05:34:38;;;;;;;44.42;26.38;;;4.60;99.90;;;;;;5113973;28;20204;-75
2020/12/09 05:37:07;;;;;;;46.83;26.40;;;4.60;99.90;;;;;;5103360;28;20212;-75
2020/12/09 05:39:34;;;;;;;47.97;24.20;;;4.70;99.90;;;;;;5093043;28;20225;-74
2020/12/09 05:42:15;;;;;;;49.17;27.83;;;4.70;99.90;;;;;;5094458;28;20221;-74
2020/12/09 05:44:43;;;;;;;43.35;22.90;;;4.80;99.90;;;;;;5107133;28;20204;-74
2020/12/09 05:47:10;;;;;;;42.88;23.95;;;4.80;99.90;;;;;;5104809;28;20208;-74
2020/12/09 05:49:40;;;;;;;41.53;23.80;;;4.90;99.90;;;;;;5113949;28;20605;-75
2020/12/09 05:52:09;;;;;;;42.83;25.20;;;5.00;99.90;;;;;;5104047;27;20231;-75
2020/12/09 05:54:36;;;;;;;43.97;24.42;;;4.80;99.90;;;;;;5134851;27;20666;-74
2020/12/09 05:57:04;;;;;;;45.97;26.08;;;4.80;99.90;;;;;;5123779;27;20197;-75
2020/12/09 05:59:37;;;;;;;42.25;25.63;;;4.70;99.90;;;;;;5113921;28;20224;-75
2020/12/09 06:02:09;;;;;;;40.28;22.45;;;4.90;99.90;;;;;;5130594;27;20224;-75
2020/12/09 06:04:50;;;;;;;44.80;24.17;;;4.80;99.90;;;;;;5135945;27;20275;-75
2020/12/09 06:07:17;;;;;;;38.95;22.80;;;4.60;99.90;;;;;;5095482;28;20691;-75
2020/12/09 06:10:05;;;;;;;43.00;25.30;;;4.60;99.90;;;;;;5094855;27;20209;-75
2020/12/09 06:12:49;;;;;;;39.78;22.13;;;4.80;99.90;;;;;;5093225;28;20695;-75
2020/12/09 06:15:17;;;;;;;57.00;31.58;;;4.70;99.90;;;;;;5110101;28;20223;-75
2020/12/09 06:17:44;;;;;;;42.20;22.45;;;4.70;99.90;;;;;;5093795;28;20249;-74
2020/12/09 06:20:11;;;;;;;40.33;23.35;;;4.70;99.90;;;;;;5111602;28;20273;-75
2020/12/09 06:22:37;;;;;;;35.22;19.75;;;4.60;99.90;;;;;;5108732;28;20266;-75
2020/12/09 06:25:05;;;;;;;36.95;20.15;;;4.80;99.90;;;;;;5092657;28;20654;-75
2020/12/09 06:27:33;;;;;;;34.60;20.95;;;4.90;99.90;;;;;;5096082;28;20203;-76
2020/12/09 06:30:01;;;;;;;35.95;22.42;;;5.00;99.90;;;;;;5112903;28;20196;-75
2020/12/09 06:32:44;;;;;;;34.80;20.25;;;5.10;99.90;;;;;;5105995;28;20717;-74
2020/12/09 06:35:11;;;;;;;35.38;21.30;;;4.70;99.90;;;;;;5129004;27;20254;-75
2020/12/09 06:37:38;;;;;;;36.55;21.90;;;4.70;99.90;;;;;;5130547;27;20661;-75
2020/12/09 06:40:09;;;;;;;44.80;24.17;;;5.00;99.90;;;;;;5111356;28;20251;-74
2020/12/09 06:42:36;;;;;;;38.78;20.88;;;4.90;99.90;;;;;;5112330;28;20232;-75
2020/12/09 06:45:04;;;;;;;44.47;24.27;;;4.90;99.90;;;;;;5111800;28;20667;-75
2020/12/09 06:47:31;;;;;;;41.53;23.88;;;4.90;99.90;;;;;;5100600;27;20208;-75
2020/12/09 06:50:00;;;;;;;40.58;23.63;;;4.80;99.90;;;;;;5132614;27;20207;-75
2020/12/09 06:52:35;;;;;;;36.67;23.17;;;4.90;99.90;;;;;;5119246;27;20225;-75
2020/12/09 06:55:05;;;;;;;42.33;23.95;;;4.70;99.90;;;;;;5094332;28;20209;-75
2020/12/09 06:57:35;;;;;;;38.42;21.65;;;5.00;99.90;;;;;;5091674;28;20209;-76
2020/12/09 07:00:23;;;;;;;41.53;24.42;;;4.70;99.90;;;;;;5092802;28;20221;-76
2020/12/09 07:02:54;;;;;;;39.45;22.40;;;4.80;99.90;;;;;;5087631;28;20654;-74
2020/12/09 07:05:27;;;;;;;39.17;22.35;;;4.60;99.90;;;;;;5091236;28;20289;-75
2020/12/09 07:08:00;;;;;;;36.78;21.17;;;4.60;99.90;;;;;;5115127;27;20250;-75
2020/12/09 07:10:29;;;;;;;43.42;22.88;;;4.70;99.90;;;;;;5128984;27;20257;-76
2020/12/09 07:13:10;;;;;;;41.67;23.52;;;4.80;99.90;;;;;;5117425;27;20220;-75
2020/12/09 07:15:39;;;;;;;40.45;23.48;;;4.80;99.90;;;;;;5095027;28;20610;-75
2020/12/09 07:18:07;;;;;;;37.08;23.05;;;4.90;99.90;;;;;;5099788;28;20197;-75
2020/12/09 07:20:34;;;;;;;41.65;23.25;;;4.80;99.90;;;;;;5102557;28;20231;-75
2020/12/09 07:23:01;;;;;;;37.58;21.77;;;4.80;99.90;;;;;;5098313;28;20586;-75
2020/12/09 07:25:28;;;;;;;36.90;23.25;;;4.70;99.90;;;;;;5109867;28;20215;-75
2020/12/09 07:27:55;;;;;;;35.42;21.92;;;4.60;99.90;;;;;;5096696;27;20614;-75
2020/12/09 07:30:22;;;;;;;41.70;21.88;;;4.70;99.90;;;;;;5107457;28;20610;-74
2020/12/09 07:32:50;;;;;;;36.47;22.23;;;4.80;99.90;;;;;;5118417;27;20314;-77
2020/12/09 07:35:18;;;;;;;37.78;22.38;;;4.70;99.90;;;;;;5105716;27;20205;-75
2020/12/09 07:37:48;;;;;;;39.67;23.90;;;4.70;99.90;;;;;;5087270;28;20696;-75
2020/12/09 07:40:19;;;;;;;42.95;22.75;;;4.90;99.90;;;;;;5105653;28;20316;-75
2020/12/09 07:42:46;;;;;;;45.20;22.63;;;4.90;99.90;;;;;;5110172;28;20632;-75
2020/12/09 07:45:18;;;;;;;44.17;22.92;;;4.60;99.90;;;;;;5108910;27;20210;-75
2020/12/09 07:47:45;;;;;;;40.20;22.88;;;4.60;99.90;;;;;;5095942;28;20203;-75
2020/12/09 07:50:12;;;;;;;39.50;22.60;;;4.70;99.90;;;;;;5104866;28;20615;-75
2020/12/09 07:52:41;;;;;;;41.10;21.80;;;4.70;99.90;;;;;;5093396;28;20250;-75
2020/12/09 07:55:12;;;;;;;43.47;22.20;;;4.70;99.90;;;;;;5096776;28;20240;-77
2020/12/09 07:57:40;;;;;;;41.65;23.73;;;4.70;99.90;;;;;;5094654;28;20578;-75
2020/12/09 08:00:09;;;;;;;42.42;25.10;;;4.80;99.90;;;;;;5099446;28;20212;-76
2020/12/09 08:02:40;;;;;;;43.15;23.85;;;4.60;99.90;;;;;;5092667;28;20274;-76
2020/12/09 08:05:12;;;;;;;42.35;22.95;;;4.70;99.90;;;;;;5108026;28;20196;-76
2020/12/09 08:07:54;;;;;;;47.45;25.63;;;4.60;99.90;;;;;;5111441;28;20204;-78
2020/12/09 08:10:23;;;;;;;41.25;24.77;;;4.70;99.90;;;;;;5109158;28;20620;-76
2020/12/09 08:12:50;;;;;;;42.67;24.85;;;4.80;99.90;;;;;;5111901;28;20232;-77
2020/12/09 08:15:17;;;;;;;43.80;24.60;;;4.90;99.90;;;;;;5111604;28;20200;-77
2020/12/09 08:17:48;;;;;;;46.45;25.33;;;4.90;99.90;;;;;;5111234;28;20239;-76
2020/12/09 08:20:15;;;;;;;46.22;26.45;;;4.70;99.90;;;;;;5111271;28;20220;-77
2020/12/09 08:22:57;;;;;;;44.78;25.55;;;4.80;99.90;;;;;;5112379;28;20626;-78
2020/12/09 08:25:24;;;;;;;48.00;25.42;;;4.80;99.90;;;;;;5114657;28;20254;-78
2020/12/09 08:27:52;;;;;;;40.35;22.60;;;4.90;99.90;;;;;;5112661;28;20214;-77
2020/12/09 08:30:22;;;;;;;40.17;23.98;;;4.90;99.90;;;;;;5112574;28;20200;-77
2020/12/09 08:33:14;;;;;;;47.15;23.27;;;5.00;99.90;;;;;;5112649;28;20273;-77
2020/12/09 08:35:47;;;;;;;41.88;23.23;;;5.10;99.90;;;;;;5112808;28;20585;-77
2020/12/09 08:38:24;;;;;;;39.63;24.00;;;5.30;99.90;;;;;;5110090;28;20201;-77
2020/12/09 08:40:52;;;;;;;38.72;22.95;;;5.00;99.90;;;;;;5097488;28;20281;-77
2020/12/09 08:43:19;;;;;;;43.55;24.88;;;5.00;99.90;;;;;;5112490;28;20216;-76
2020/12/09 08:45:47;;;;;;;41.42;25.33;;;4.90;99.90;;;;;;5113515;28;20296;-76
2020/12/09 08:48:14;;;;;;;40.45;22.88;;;4.80;99.90;;;;;;5114825;28;20208;-75
2020/12/09 08:50:40;;;;;;;41.38;24.58;;;4.90;99.90;;;;;;5112304;28;20288;-77
2020/12/09 08:53:07;;;;;;;42.03;24.65;;;5.30;99.90;;;;;;5110823;28;20714;-77
2020/12/09 08:55:34;;;;;;;36.67;22.10;;;5.00;99.90;;;;;;5096793;28;20220;-77
2020/12/09 08:58:01;;;;;;;36.55;22.70;;;5.30;99.90;;;;;;5094156;28;20671;-77
2020/12/09 09:00:27;;;;;;;43.70;23.25;;;5.20;99.90;;;;;;5094358;28;20232;-77
2020/12/09 09:02:56;;;;;;;34.40;22.42;;;5.20;99.90;;;;;;5100681;28;20216;-76
2020/12/09 09:05:22;;;;;;;40.72;23.15;;;5.40;99.90;;;;;;5107199;28;20198;-77
2020/12/09 09:07:49;;;;;;;24.55;11.95;;;5.50;99.90;;;;;;5094858;28;20204;-76
2020/12/09 09:10:15;;;;;;;36.83;21.23;;;5.50;99.90;;;;;;5102791;27;20198;-76
2020/12/09 09:12:43;;;;;;;38.88;20.30;;;5.10;99.90;;;;;;5110965;28;20224;-77
2020/12/09 09:15:10;;;;;;;44.30;23.58;;;4.90;99.90;;;;;;5111787;27;20213;-76
2020/12/09 09:17:37;;;;;;;39.97;24.17;;;4.90;99.90;;;;;;5134816;27;20672;-76
2020/12/09 09:20:05;;;;;;;36.38;21.13;;;4.90;99.90;;;;;;5113585;27;20228;-75
2020/12/09 09:22:31;;;;;;;40.28;22.90;;;5.00;99.90;;;;;;5093717;28;20229;-76
2020/12/09 09:24:58;;;;;;;40.80;23.45;;;5.10;99.90;;;;;;5093994;28;20208;-77
2020/12/09 09:27:25;;;;;;;44.10;26.38;;;5.10;99.90;;;;;;5095822;28;20632;-76
2020/12/09 09:29:52;;;;;;;45.47;25.23;;;4.80;99.90;;;;;;5093650;28;20698;-76
2020/12/09 09:32:19;;;;;;;36.53;21.20;;;4.80;99.90;;;;;;5094569;28;20255;-77
2020/12/09 09:34:46;;;;;;;42.47;26.15;;;4.90;99.90;;;;;;5094173;28;20679;-77
2020/12/09 09:37:12;;;;;;;35.85;21.88;;;5.00;99.90;;;;;;5096487;28;20205;-75
2020/12/09 09:39:39;;;;;;;46.17;25.70;;;5.00;99.90;;;;;;5094477;28;20679;-77
2020/12/09 09:42:05;;;;;;;42.83;22.38;;;5.20;99.90;;;;;;5094336;28;20233;-77
2020/12/09 09:44:32;;;;;;;44.90;24.90;;;5.10;99.90;;;;;;5094200;28;20224;-76
2020/12/09 09:47:00;;;;;;;45.03;25.23;;;5.20;99.90;;;;;;5108301;28;20212;-77
2020/12/09 09:49:27;;;;;;;39.33;22.08;;;5.20;99.90;;;;;;5114240;28;20219;-77
2020/12/09 09:51:53;;;;;;;44.28;24.92;;;5.10;99.90;;;;;;5103176;27;20225;-76
2020/12/09 09:54:20;;;;;;;41.60;25.15;;;5.30;99.90;;;;;;5094452;28;20209;-76
2020/12/09 09:56:46;;;;;;;43.90;26.35;;;5.00;99.90;;;;;;5103791;28;20743;-76
2020/12/09 09:59:13;;;;;;;44.65;25.27;;;5.00;99.90;;;;;;5093906;28;20313;-77
2020/12/09 10:01:40;;;;;;;27.30;13.57;;;5.00;99.90;;;;;;5097065;28;20228;-76
2020/12/09 10:04:08;;;;;;;40.00;23.02;;;5.10;99.90;;;;;;5099809;28;20212;-77
2020/12/09 10:06:35;;;;;;;48.28;26.50;;;4.90;99.90;;;;;;5108770;28;20212;-77
2020/12/09 10:09:03;;;;;;;44.40;25.90;;;5.20;99.90;;;;;;5106100;28;20224;-78
2020/12/09 10:11:30;;;;;;;47.28;24.63;;;5.10;99.90;;;;;;5109111;27;20697;-77
2020/12/09 10:13:57;;;;;;;49.53;27.80;;;4.90;99.90;;;;;;5123318;27;20212;-74
2020/12/09 10:16:26;;;;;;;41.95;24.80;;;5.30;99.90;;;;;;5105735;27;20663;-73
2020/12/09 10:18:53;;;;;;;46.70;27.73;;;5.10;99.90;;;;;;5092465;28;20228;-75
2020/12/09 10:21:25;;;;;;;47.95;23.83;;;5.00;99.90;;;;;;5088216;28;20224;-75
2020/12/09 10:23:52;;;;;;;42.50;24.80;;;5.00;99.90;;;;;;5105670;28;20201;-75
2020/12/09 10:26:18;;;;;;;48.15;26.38;;;5.10;99.90;;;;;;5098770;28;20189;-76
2020/12/09 10:28:46;;;;;;;44.15;25.40;;;5.10;99.90;;;;;;5101418;28;20204;-75
2020/12/09 10:31:13;;;;;;;43.78;25.00;;;5.50;99.90;;;;;;5095270;28;20205;-75
2020/12/09 10:33:39;;;;;;;47.05;26.35;;;5.30;99.90;;;;;;5118864;22;20200;-75
2020/12/09 10:36:06;;;;;;;47.10;24.92;;;5.20;99.90;;;;;;5070607;28;20274;-75
2020/12/09 10:38:33;;;;;;;44.13;24.48;;;5.20;99.90;;;;;;5086147;28;20213;-75
2020/12/09 10:41:00;;;;;;;44.05;22.75;;;5.30;99.90;;;;;;5073050;28;20319;-76
2020/12/09 10:43:27;;;;;;;35.42;22.60;;;5.50;99.90;;;;;;5070091;28;20256;-76
2020/12/09 10:45:54;;;;;;;42.90;26.05;;;5.30;99.90;;;;;;5071587;28;20249;-75
2020/12/09 10:48:21;;;;;;;41.58;23.75;;;5.50;99.90;;;;;;5070681;28;20687;-77
2020/12/09 10:50:48;;;;;;;43.20;25.38;;;5.30;99.90;;;;;;5065593;28;20260;-77
2020/12/09 10:53:14;;;;;;;43.03;24.38;;;5.00;99.90;;;;;;5089115;28;20197;-76
2020/12/09 10:55:41;;;;;;;42.45;24.42;;;4.80;99.90;;;;;;5082223;28;20676;-76
2020/12/09 10:58:08;;;;;;;42.03;24.95;;;4.90;99.90;;;;;;5067874;28;20206;-76
2020/12/09 11:00:35;;;;;;;46.35;23.98;;;5.00;99.90;;;;;;5074280;28;20705;-76
2020/12/09 11:03:01;;;;;;;43.03;24.60;;;5.10;99.90;;;;;;5089410;28;20292;-76
2020/12/09 11:05:28;;;;;;;35.95;18.23;;;5.40;99.90;;;;;;5084724;28;20715;-74
2020/12/09 11:07:54;;;;;;;35.95;22.15;;;5.20;99.90;;;;;;5088932;28;20204;-75
2020/12/09 11:10:21;;;;;;;37.35;23.08;;;5.20;99.90;;;;;;5079258;28;20201;-75
2020/12/09 11:12:48;;;;;;;38.63;21.95;;;5.20;99.90;;;;;;5074165;28;20220;-75
2020/12/09 11:15:15;;;;;;;39.50;21.60;;;5.30;99.90;;;;;;5070051;28;20305;-77
2020/12/09 11:17:42;;;;;;;42.95;24.92;;;5.30;99.90;;;;;;5069450;28;20220;-75
2020/12/09 11:20:09;;;;;;;52.17;27.80;;;4.90;99.90;;;;;;5069209;28;20640;-75
2020/12/09 11:22:36;;;;;;;44.50;26.58;;;5.00;99.90;;;;;;5070096;28;20621;-77
2020/12/09 11:25:03;;;;;;;45.90;25.45;;;5.20;99.90;;;;;;5071398;28;20217;-75
2020/12/09 11:27:30;;;;;;;44.00;25.65;;;5.20;99.90;;;;;;5071231;28;20209;-76
2020/12/09 11:29:58;;;;;;;48.22;27.88;;;5.20;99.90;;;;;;5089386;28;20215;-81
2020/12/09 11:32:25;;;;;;;39.80;23.80;;;5.20;99.90;;;;;;5089408;28;20290;-77
2020/12/09 11:34:51;;;;;;;30.70;15.82;;;5.30;99.90;;;;;;5086425;28;20233;-75
2020/12/09 11:37:18;;;;;;;42.70;24.85;;;5.10;99.90;;;;;;5069724;28;20319;-76
2020/12/09 11:39:44;;;;;;;40.38;24.75;;;5.10;99.90;;;;;;5068714;28;20214;-77
2020/12/09 11:42:25;;;;;;;47.45;26.13;;;5.20;99.90;;;;;;5069360;28;20210;-76
2020/12/09 11:44:51;;;;;;;41.38;22.77;;;5.10;99.90;;;;;;5071142;28;20309;-77
2020/12/09 11:47:19;;;;;;;42.70;23.58;;;5.20;99.90;;;;;;5070872;28;20224;-78
2020/12/09 11:49:46;;;;;;;40.88;21.85;;;5.40;99.90;;;;;;5070044;28;20197;-75
2020/12/09 11:52:12;;;;;;;41.95;23.10;;;5.30;99.90;;;;;;5070118;28;20213;-75
2020/12/09 11:54:39;;;;;;;34.28;17.85;;;5.20;99.90;;;;;;5068643;28;20217;-74
2020/12/09 11:57:05;;;;;;;45.25;25.60;;;5.30;99.90;;;;;;5069689;28;20201;-73
2020/12/09 11:59:32;;;;;;;48.67;24.05;;;5.00;99.90;;;;;;5070766;28;20222;-75
2020/12/09 12:01:59;;;;;;;46.67;23.40;;;5.10;99.90;;;;;;5068744;28;20221;-75
2020/12/09 12:04:26;;;;;;;44.03;24.05;;;5.10;99.90;;;;;;5071099;28;20233;-76
2020/12/09 12:06:53;;;;;;;38.53;22.80;;;5.00;99.90;;;;;;5070210;28;20631;-73
2020/12/09 12:09:19;;;;;;;45.60;27.35;;;4.90;99.90;;;;;;5069043;28;20300;-73
2020/12/09 12:11:46;;;;;;;49.50;27.25;;;4.90;99.90;;;;;;5076882;28;20228;-75
2020/12/09 12:14:12;;;;;;;35.60;18.35;;;4.70;99.90;;;;;;5074278;28;20229;-74
2020/12/09 12:16:45;;;;;;;43.72;21.95;;;4.90;99.90;;;;;;5068717;28;20201;-75
2020/12/09 12:19:16;;;;;;;56.47;26.08;;;5.00;99.90;;;;;;5068953;28;20229;-74
2020/12/09 12:21:47;;;;;;;34.17;17.73;;;5.00;99.90;;;;;;5069387;28;20198;-76
2020/12/09 12:24:14;;;;;;;35.60;20.70;;;5.00;99.90;;;;;;5069300;28;20231;-74
2020/12/09 12:26:41;;;;;;;47.67;23.58;;;5.00;99.90;;;;;;5068835;28;20198;-74
2020/12/09 12:29:07;;;;;;;44.55;21.30;;;4.90;99.90;;;;;;5068672;28;20208;-74
2020/12/09 12:31:34;;;;;;;37.92;19.80;;;4.80;99.90;;;;;;5080408;28;20209;-74
2020/12/09 12:34:01;;;;;;;45.17;21.88;;;5.00;99.90;;;;;;5074079;28;20232;-78
2020/12/09 12:36:27;;;;;;;38.40;20.60;;;4.90;99.90;;;;;;5077054;28;20209;-75
2020/12/09 12:38:55;;;;;;;28.55;13.52;;;5.00;99.90;;;;;;5072842;28;20198;-75